sensor_id;sensor_type;location;lat;lon;timestamp;P1;durP1;ratioP1;P2;durP2;ratioP2
15454;SDS011;21057;51.024;7.540;2024-02-21T00:00:51;30.10;;;27.87;;
15454;SDS011;21057;51.024;7.540;2024-02-21T00:03:18;31.50;;;28.97;;
15454;SDS011;21057;51.024;7.540;2024-02-21T00:05:45;30.17;;;28.00;;
15454;SDS011;21057;51.024;7.540;2024-02-21T00:08:12;30.23;;;28.33;;
15454;SDS011;21057;51.024;7.540;2024-02-21T00:10:40;30.43;;;28.03;;
15454;SDS011;21057;51.024;7.540;2024-02-21T00:13:07;31.90;;;29.70;;
15454;SDS011;21057;51.024;7.540;2024-02-21T00:15:34;28.63;;;26.87;;
15454;SDS011;21057;51.024;7.540;2024-02-21T00:18:00;31.00;;;28.90;;
15454;SDS011;21057;51.024;7.540;2024-02-21T00:20:27;30.70;;;28.43;;
15454;SDS011;21057;51.024;7.540;2024-02-21T00:22:55;31.23;;;28.77;;
15454;SDS011;21057;51.024;7.540;2024-02-21T00:25:22;28.27;;;26.47;;
15454;SDS011;21057;51.024;7.540;2024-02-21T00:27:50;30.33;;;28.37;;
15454;SDS011;21057;51.024;7.540;2024-02-21T00:30:18;32.07;;;29.77;;
15454;SDS011;21057;51.024;7.540;2024-02-21T00:32:46;30.27;;;27.97;;
15454;SDS011;21057;51.024;7.540;2024-02-21T00:35:13;31.33;;;28.47;;
15454;SDS011;21057;51.024;7.540;2024-02-21T00:37:40;30.30;;;28.23;;
15454;SDS011;21057;51.024;7.540;2024-02-21T00:40:07;28.83;;;26.63;;
15454;SDS011;21057;51.024;7.540;2024-02-21T00:42:34;30.97;;;28.87;;
15454;SDS011;21057;51.024;7.540;2024-02-21T00:45:02;29.47;;;27.60;;
15454;SDS011;21057;51.024;7.540;2024-02-21T00:47:30;30.33;;;27.87;;
15454;SDS011;21057;51.024;7.540;2024-02-21T00:49:56;28.00;;;26.00;;
15454;SDS011;21057;51.024;7.540;2024-02-21T00:52:23;30.63;;;28.50;;
15454;SDS011;21057;51.024;7.540;2024-02-21T00:54:50;29.67;;;27.30;;
15454;SDS011;21057;51.024;7.540;2024-02-21T00:57:17;30.80;;;28.40;;
15454;SDS011;21057;51.024;7.540;2024-02-21T00:59:44;29.83;;;27.83;;
15454;SDS011;21057;51.024;7.540;2024-02-21T01:02:12;30.17;;;27.87;;
15454;SDS011;21057;51.024;7.540;2024-02-21T01:04:38;31.90;;;29.27;;
15454;SDS011;21057;51.024;7.540;2024-02-21T01:07:05;32.07;;;30.03;;
15454;SDS011;21057;51.024;7.540;2024-02-21T01:09:32;31.80;;;29.23;;
15454;SDS011;21057;51.024;7.540;2024-02-21T01:11:59;32.27;;;29.80;;
15454;SDS011;21057;51.024;7.540;2024-02-21T01:14:25;31.47;;;29.03;;
15454;SDS011;21057;51.024;7.540;2024-02-21T01:16:52;31.57;;;29.10;;
15454;SDS011;21057;51.024;7.540;2024-02-21T01:19:21;30.67;;;28.00;;
15454;SDS011;21057;51.024;7.540;2024-02-21T01:21:47;32.13;;;29.50;;
15454;SDS011;21057;51.024;7.540;2024-02-21T01:24:14;29.57;;;27.47;;
15454;SDS011;21057;51.024;7.540;2024-02-21T01:26:41;30.70;;;27.87;;
15454;SDS011;21057;51.024;7.540;2024-02-21T01:29:08;28.57;;;26.67;;
15454;SDS011;21057;51.024;7.540;2024-02-21T01:31:34;28.70;;;26.87;;
15454;SDS011;21057;51.024;7.540;2024-02-21T01:34:01;30.97;;;28.67;;
15454;SDS011;21057;51.024;7.540;2024-02-21T01:36:29;30.93;;;28.53;;
15454;SDS011;21057;51.024;7.540;2024-02-21T01:38:56;31.00;;;29.00;;
15454;SDS011;21057;51.024;7.540;2024-02-21T01:41:23;31.30;;;29.50;;
15454;SDS011;21057;51.024;7.540;2024-02-21T01:43:49;31.13;;;29.03;;
15454;SDS011;21057;51.024;7.540;2024-02-21T01:46:16;30.80;;;28.70;;
15454;SDS011;21057;51.024;7.540;2024-02-21T01:48:44;30.13;;;28.10;;
15454;SDS011;21057;51.024;7.540;2024-02-21T01:51:11;29.60;;;27.50;;
15454;SDS011;21057;51.024;7.540;2024-02-21T01:53:41;31.07;;;28.97;;
15454;SDS011;21057;51.024;7.540;2024-02-21T01:56:09;30.30;;;28.30;;
15454;SDS011;21057;51.024;7.540;2024-02-21T01:58:37;32.20;;;29.87;;
15454;SDS011;21057;51.024;7.540;2024-02-21T02:01:05;32.47;;;29.47;;
15454;SDS011;21057;51.024;7.540;2024-02-21T02:03:32;29.93;;;28.03;;
15454;SDS011;21057;51.024;7.540;2024-02-21T02:05:59;31.40;;;28.93;;
15454;SDS011;21057;51.024;7.540;2024-02-21T02:08:26;28.83;;;27.13;;
15454;SDS011;21057;51.024;7.540;2024-02-21T02:10:55;31.20;;;29.17;;
15454;SDS011;21057;51.024;7.540;2024-02-21T02:13:22;30.43;;;28.07;;
15454;SDS011;21057;51.024;7.540;2024-02-21T02:15:49;31.27;;;28.93;;
15454;SDS011;21057;51.024;7.540;2024-02-21T02:18:17;29.97;;;28.07;;
15454;SDS011;21057;51.024;7.540;2024-02-21T02:20:45;30.10;;;27.90;;
15454;SDS011;21057;51.024;7.540;2024-02-21T02:25:45;30.03;;;27.47;;
15454;SDS011;21057;51.024;7.540;2024-02-21T02:28:14;29.37;;;27.30;;
15454;SDS011;21057;51.024;7.540;2024-02-21T02:30:41;29.83;;;27.73;;
15454;SDS011;21057;51.024;7.540;2024-02-21T02:33:08;31.13;;;29.13;;
15454;SDS011;21057;51.024;7.540;2024-02-21T02:35:35;29.80;;;27.47;;
15454;SDS011;21057;51.024;7.540;2024-02-21T02:38:02;29.30;;;27.20;;
15454;SDS011;21057;51.024;7.540;2024-02-21T02:40:30;29.50;;;27.57;;
15454;SDS011;21057;51.024;7.540;2024-02-21T02:42:57;30.70;;;28.60;;
15454;SDS011;21057;51.024;7.540;2024-02-21T02:45:24;29.70;;;27.47;;
15454;SDS011;21057;51.024;7.540;2024-02-21T02:47:52;29.33;;;27.30;;
15454;SDS011;21057;51.024;7.540;2024-02-21T02:50:19;31.00;;;28.27;;
15454;SDS011;21057;51.024;7.540;2024-02-21T02:52:46;29.17;;;27.03;;
15454;SDS011;21057;51.024;7.540;2024-02-21T02:55:13;30.30;;;28.27;;
15454;SDS011;21057;51.024;7.540;2024-02-21T02:57:42;32.53;;;30.17;;
15454;SDS011;21057;51.024;7.540;2024-02-21T03:00:09;32.00;;;29.67;;
15454;SDS011;21057;51.024;7.540;2024-02-21T03:02:37;31.70;;;29.27;;
15454;SDS011;21057;51.024;7.540;2024-02-21T03:05:11;32.03;;;29.87;;
15454;SDS011;21057;51.024;7.540;2024-02-21T03:07:39;31.00;;;29.00;;
15454;SDS011;21057;51.024;7.540;2024-02-21T03:10:06;29.73;;;27.73;;
15454;SDS011;21057;51.024;7.540;2024-02-21T03:12:34;32.27;;;30.00;;
15454;SDS011;21057;51.024;7.540;2024-02-21T03:15:02;33.20;;;31.10;;
15454;SDS011;21057;51.024;7.540;2024-02-21T03:17:29;32.73;;;30.63;;
15454;SDS011;21057;51.024;7.540;2024-02-21T03:19:57;31.73;;;29.63;;
15454;SDS011;21057;51.024;7.540;2024-02-21T03:22:25;33.17;;;30.80;;
15454;SDS011;21057;51.024;7.540;2024-02-21T03:24:52;31.77;;;29.77;;
15454;SDS011;21057;51.024;7.540;2024-02-21T03:27:19;31.00;;;29.07;;
15454;SDS011;21057;51.024;7.540;2024-02-21T03:29:45;33.23;;;30.87;;
15454;SDS011;21057;51.024;7.540;2024-02-21T03:32:14;32.23;;;29.87;;
15454;SDS011;21057;51.024;7.540;2024-02-21T03:34:40;32.93;;;30.73;;
15454;SDS011;21057;51.024;7.540;2024-02-21T03:37:07;35.63;;;30.93;;
15454;SDS011;21057;51.024;7.540;2024-02-21T03:39:34;30.67;;;28.73;;
15454;SDS011;21057;51.024;7.540;2024-02-21T03:42:02;31.93;;;29.43;;
15454;SDS011;21057;51.024;7.540;2024-02-21T03:44:29;32.90;;;30.00;;
15454;SDS011;21057;51.024;7.540;2024-02-21T03:46:56;30.30;;;28.30;;
15454;SDS011;21057;51.024;7.540;2024-02-21T03:49:25;31.43;;;28.83;;
15454;SDS011;21057;51.024;7.540;2024-02-21T03:51:51;32.53;;;29.53;;
15454;SDS011;21057;51.024;7.540;2024-02-21T03:54:18;31.77;;;29.67;;
15454;SDS011;21057;51.024;7.540;2024-02-21T03:56:45;30.90;;;28.50;;
15454;SDS011;21057;51.024;7.540;2024-02-21T03:59:13;30.60;;;28.50;;
15454;SDS011;21057;51.024;7.540;2024-02-21T04:01:40;32.77;;;30.33;;
15454;SDS011;21057;51.024;7.540;2024-02-21T04:04:07;33.10;;;30.27;;
15454;SDS011;21057;51.024;7.540;2024-02-21T04:06:35;31.73;;;29.53;;
15454;SDS011;21057;51.024;7.540;2024-02-21T04:09:02;34.57;;;31.70;;
15454;SDS011;21057;51.024;7.540;2024-02-21T04:11:29;32.97;;;30.70;;
15454;SDS011;21057;51.024;7.540;2024-02-21T04:13:56;32.17;;;29.97;;
15454;SDS011;21057;51.024;7.540;2024-02-21T04:16:23;31.77;;;29.83;;
15454;SDS011;21057;51.024;7.540;2024-02-21T04:18:50;32.93;;;30.53;;
15454;SDS011;21057;51.024;7.540;2024-02-21T04:21:17;36.03;;;33.47;;
15454;SDS011;21057;51.024;7.540;2024-02-21T04:23:45;36.23;;;33.57;;
15454;SDS011;21057;51.024;7.540;2024-02-21T04:26:12;35.20;;;32.53;;
15454;SDS011;21057;51.024;7.540;2024-02-21T04:28:38;31.43;;;29.47;;
15454;SDS011;21057;51.024;7.540;2024-02-21T04:31:05;32.97;;;30.97;;
15454;SDS011;21057;51.024;7.540;2024-02-21T04:33:32;33.83;;;31.30;;
15454;SDS011;21057;51.024;7.540;2024-02-21T04:35:59;32.43;;;30.23;;
15454;SDS011;21057;51.024;7.540;2024-02-21T04:38:27;35.63;;;33.27;;
15454;SDS011;21057;51.024;7.540;2024-02-21T04:40:55;35.23;;;32.67;;
15454;SDS011;21057;51.024;7.540;2024-02-21T04:43:23;35.60;;;33.00;;
15454;SDS011;21057;51.024;7.540;2024-02-21T04:45:50;33.67;;;31.47;;
15454;SDS011;21057;51.024;7.540;2024-02-21T04:48:18;33.80;;;30.70;;
15454;SDS011;21057;51.024;7.540;2024-02-21T04:50:45;34.60;;;31.93;;
15454;SDS011;21057;51.024;7.540;2024-02-21T04:53:12;36.37;;;34.07;;
15454;SDS011;21057;51.024;7.540;2024-02-21T04:55:39;36.03;;;33.20;;
15454;SDS011;21057;51.024;7.540;2024-02-21T04:58:07;35.47;;;33.00;;
15454;SDS011;21057;51.024;7.540;2024-02-21T05:00:34;33.50;;;31.20;;
15454;SDS011;21057;51.024;7.540;2024-02-21T05:03:01;32.73;;;30.53;;
15454;SDS011;21057;51.024;7.540;2024-02-21T05:05:27;34.10;;;31.50;;
15454;SDS011;21057;51.024;7.540;2024-02-21T05:07:54;36.70;;;34.03;;
15454;SDS011;21057;51.024;7.540;2024-02-21T05:10:21;37.40;;;34.87;;
15454;SDS011;21057;51.024;7.540;2024-02-21T05:12:48;33.77;;;31.47;;
15454;SDS011;21057;51.024;7.540;2024-02-21T05:15:16;35.30;;;32.00;;
15454;SDS011;21057;51.024;7.540;2024-02-21T05:17:43;35.47;;;32.07;;
15454;SDS011;21057;51.024;7.540;2024-02-21T05:20:10;33.47;;;31.17;;
15454;SDS011;21057;51.024;7.540;2024-02-21T05:22:37;35.43;;;32.37;;
15454;SDS011;21057;51.024;7.540;2024-02-21T05:25:04;35.57;;;33.03;;
15454;SDS011;21057;51.024;7.540;2024-02-21T05:27:32;36.07;;;33.30;;
15454;SDS011;21057;51.024;7.540;2024-02-21T05:30:00;34.90;;;32.03;;
15454;SDS011;21057;51.024;7.540;2024-02-21T05:32:28;34.70;;;32.07;;
15454;SDS011;21057;51.024;7.540;2024-02-21T05:34:54;33.83;;;31.63;;
15454;SDS011;21057;51.024;7.540;2024-02-21T05:37:23;35.60;;;32.40;;
15454;SDS011;21057;51.024;7.540;2024-02-21T05:39:49;34.27;;;32.07;;
15454;SDS011;21057;51.024;7.540;2024-02-21T05:42:16;34.57;;;32.03;;
15454;SDS011;21057;51.024;7.540;2024-02-21T05:44:43;35.63;;;33.53;;
15454;SDS011;21057;51.024;7.540;2024-02-21T05:47:10;34.13;;;31.83;;
15454;SDS011;21057;51.024;7.540;2024-02-21T05:49:41;33.60;;;31.00;;
15454;SDS011;21057;51.024;7.540;2024-02-21T05:52:08;32.10;;;30.20;;
15454;SDS011;21057;51.024;7.540;2024-02-21T05:54:37;35.63;;;33.17;;
15454;SDS011;21057;51.024;7.540;2024-02-21T05:57:04;35.87;;;33.37;;
15454;SDS011;21057;51.024;7.540;2024-02-21T05:59:32;36.57;;;34.17;;
15454;SDS011;21057;51.024;7.540;2024-02-21T06:02:00;34.27;;;32.03;;
15454;SDS011;21057;51.024;7.540;2024-02-21T06:04:28;36.30;;;33.40;;
15454;SDS011;21057;51.024;7.540;2024-02-21T06:06:57;34.67;;;32.37;;
15454;SDS011;21057;51.024;7.540;2024-02-21T06:09:23;36.40;;;33.90;;
15454;SDS011;21057;51.024;7.540;2024-02-21T06:11:50;36.37;;;33.40;;
15454;SDS011;21057;51.024;7.540;2024-02-21T06:14:17;36.23;;;34.03;;
15454;SDS011;21057;51.024;7.540;2024-02-21T06:16:44;37.03;;;34.53;;
15454;SDS011;21057;51.024;7.540;2024-02-21T06:19:11;34.97;;;32.97;;
15454;SDS011;21057;51.024;7.540;2024-02-21T06:21:37;38.90;;;35.43;;
15454;SDS011;21057;51.024;7.540;2024-02-21T06:24:06;34.97;;;32.60;;
15454;SDS011;21057;51.024;7.540;2024-02-21T06:26:32;35.67;;;33.43;;
15454;SDS011;21057;51.024;7.540;2024-02-21T06:28:59;36.00;;;33.13;;
15454;SDS011;21057;51.024;7.540;2024-02-21T06:31:26;36.33;;;33.77;;
15454;SDS011;21057;51.024;7.540;2024-02-21T06:33:54;35.17;;;32.90;;
15454;SDS011;21057;51.024;7.540;2024-02-21T06:36:21;36.93;;;34.63;;
15454;SDS011;21057;51.024;7.540;2024-02-21T06:38:47;38.33;;;36.13;;
15454;SDS011;21057;51.024;7.540;2024-02-21T06:41:16;36.70;;;34.13;;
15454;SDS011;21057;51.024;7.540;2024-02-21T06:43:44;37.13;;;34.73;;
15454;SDS011;21057;51.024;7.540;2024-02-21T06:46:11;36.20;;;33.90;;
15454;SDS011;21057;51.024;7.540;2024-02-21T06:48:38;37.60;;;35.27;;
15454;SDS011;21057;51.024;7.540;2024-02-21T06:51:05;40.00;;;36.63;;
15454;SDS011;21057;51.024;7.540;2024-02-21T06:53:32;36.13;;;33.93;;
15454;SDS011;21057;51.024;7.540;2024-02-21T06:55:58;35.83;;;33.50;;
15454;SDS011;21057;51.024;7.540;2024-02-21T06:58:27;34.63;;;32.33;;
15454;SDS011;21057;51.024;7.540;2024-02-21T07:00:53;36.27;;;33.70;;
15454;SDS011;21057;51.024;7.540;2024-02-21T07:03:20;37.23;;;34.57;;
15454;SDS011;21057;51.024;7.540;2024-02-21T07:05:49;36.70;;;34.20;;
15454;SDS011;21057;51.024;7.540;2024-02-21T07:08:16;35.80;;;33.30;;
15454;SDS011;21057;51.024;7.540;2024-02-21T07:10:42;34.23;;;32.10;;
15454;SDS011;21057;51.024;7.540;2024-02-21T07:13:09;33.77;;;30.63;;
15454;SDS011;21057;51.024;7.540;2024-02-21T07:15:37;34.37;;;32.27;;
15454;SDS011;21057;51.024;7.540;2024-02-21T07:18:04;34.80;;;32.30;;
15454;SDS011;21057;51.024;7.540;2024-02-21T07:20:32;35.90;;;33.60;;
15454;SDS011;21057;51.024;7.540;2024-02-21T07:23:01;35.37;;;33.20;;
15454;SDS011;21057;51.024;7.540;2024-02-21T07:25:28;37.67;;;35.27;;
15454;SDS011;21057;51.024;7.540;2024-02-21T07:27:55;36.83;;;34.53;;
15454;SDS011;21057;51.024;7.540;2024-02-21T07:30:22;35.80;;;33.10;;
15454;SDS011;21057;51.024;7.540;2024-02-21T07:32:50;35.00;;;32.70;;
15454;SDS011;21057;51.024;7.540;2024-02-21T07:35:17;37.67;;;35.07;;
15454;SDS011;21057;51.024;7.540;2024-02-21T07:37:44;35.77;;;33.57;;
15454;SDS011;21057;51.024;7.540;2024-02-21T07:40:14;35.27;;;32.93;;
15454;SDS011;21057;51.024;7.540;2024-02-21T07:42:42;35.10;;;32.80;;
15454;SDS011;21057;51.024;7.540;2024-02-21T07:45:09;33.80;;;31.67;;
15454;SDS011;21057;51.024;7.540;2024-02-21T07:47:36;33.23;;;30.83;;
15454;SDS011;21057;51.024;7.540;2024-02-21T07:50:05;34.73;;;32.33;;
15454;SDS011;21057;51.024;7.540;2024-02-21T07:52:33;37.33;;;34.40;;
15454;SDS011;21057;51.024;7.540;2024-02-21T07:55:00;34.00;;;31.80;;
15454;SDS011;21057;51.024;7.540;2024-02-21T07:57:27;35.33;;;32.53;;
15454;SDS011;21057;51.024;7.540;2024-02-21T07:59:53;34.37;;;32.17;;
15454;SDS011;21057;51.024;7.540;2024-02-21T08:02:20;34.27;;;32.00;;
15454;SDS011;21057;51.024;7.540;2024-02-21T08:04:47;31.67;;;29.40;;
15454;SDS011;21057;51.024;7.540;2024-02-21T08:07:15;32.30;;;29.47;;
15454;SDS011;21057;51.024;7.540;2024-02-21T08:09:42;31.87;;;29.87;;
15454;SDS011;21057;51.024;7.540;2024-02-21T08:12:09;31.33;;;29.33;;
15454;SDS011;21057;51.024;7.540;2024-02-21T08:14:36;32.93;;;30.37;;
15454;SDS011;21057;51.024;7.540;2024-02-21T08:17:03;31.97;;;29.80;;
15454;SDS011;21057;51.024;7.540;2024-02-21T08:19:30;30.27;;;28.17;;
15454;SDS011;21057;51.024;7.540;2024-02-21T08:21:56;32.03;;;29.80;;
15454;SDS011;21057;51.024;7.540;2024-02-21T08:24:25;32.87;;;30.13;;
15454;SDS011;21057;51.024;7.540;2024-02-21T08:26:51;31.70;;;29.40;;
15454;SDS011;21057;51.024;7.540;2024-02-21T08:29:18;32.13;;;29.77;;
15454;SDS011;21057;51.024;7.540;2024-02-21T08:31:45;31.27;;;29.33;;
15454;SDS011;21057;51.024;7.540;2024-02-21T08:34:12;31.97;;;29.87;;
15454;SDS011;21057;51.024;7.540;2024-02-21T08:36:39;32.00;;;29.87;;
15454;SDS011;21057;51.024;7.540;2024-02-21T08:39:05;31.83;;;29.83;;
15454;SDS011;21057;51.024;7.540;2024-02-21T08:41:35;33.40;;;30.83;;
15454;SDS011;21057;51.024;7.540;2024-02-21T08:44:03;33.93;;;31.80;;
15454;SDS011;21057;51.024;7.540;2024-02-21T08:46:30;34.77;;;31.90;;
15454;SDS011;21057;51.024;7.540;2024-02-21T08:48:57;33.57;;;30.97;;
15454;SDS011;21057;51.024;7.540;2024-02-21T08:51:24;33.97;;;31.53;;
15454;SDS011;21057;51.024;7.540;2024-02-21T08:53:51;34.73;;;32.53;;
15454;SDS011;21057;51.024;7.540;2024-02-21T08:56:18;33.60;;;31.13;;
15454;SDS011;21057;51.024;7.540;2024-02-21T08:58:46;34.17;;;31.87;;
15454;SDS011;21057;51.024;7.540;2024-02-21T09:01:13;33.80;;;31.30;;
15454;SDS011;21057;51.024;7.540;2024-02-21T09:03:40;41.43;;;37.97;;
15454;SDS011;21057;51.024;7.540;2024-02-21T09:06:07;32.83;;;30.63;;
15454;SDS011;21057;51.024;7.540;2024-02-21T09:08:35;34.23;;;31.10;;
15454;SDS011;21057;51.024;7.540;2024-02-21T09:11:02;32.73;;;30.37;;
15454;SDS011;21057;51.024;7.540;2024-02-21T09:13:29;33.07;;;30.33;;
15454;SDS011;21057;51.024;7.540;2024-02-21T09:15:58;30.97;;;28.27;;
15454;SDS011;21057;51.024;7.540;2024-02-21T09:18:24;30.97;;;28.50;;
15454;SDS011;21057;51.024;7.540;2024-02-21T09:20:51;28.47;;;26.63;;
15454;SDS011;21057;51.024;7.540;2024-02-21T09:23:18;29.47;;;27.37;;
15454;SDS011;21057;51.024;7.540;2024-02-21T09:25:45;30.93;;;29.03;;
15454;SDS011;21057;51.024;7.540;2024-02-21T09:28:12;31.43;;;28.80;;
15454;SDS011;21057;51.024;7.540;2024-02-21T09:30:39;30.03;;;27.70;;
15454;SDS011;21057;51.024;7.540;2024-02-21T09:33:07;28.60;;;26.40;;
15454;SDS011;21057;51.024;7.540;2024-02-21T09:35:34;29.93;;;27.87;;
15454;SDS011;21057;51.024;7.540;2024-02-21T09:38:00;29.80;;;27.50;;
15454;SDS011;21057;51.024;7.540;2024-02-21T09:40:27;28.40;;;26.50;;
15454;SDS011;21057;51.024;7.540;2024-02-21T09:42:57;29.17;;;27.17;;
15454;SDS011;21057;51.024;7.540;2024-02-21T09:45:31;27.83;;;26.00;;
15454;SDS011;21057;51.024;7.540;2024-02-21T09:51:03;27.80;;;25.80;;
15454;SDS011;21057;51.024;7.540;2024-02-21T09:53:31;27.97;;;26.07;;
15454;SDS011;21057;51.024;7.540;2024-02-21T09:56:00;29.23;;;26.97;;
15454;SDS011;21057;51.024;7.540;2024-02-21T09:58:28;27.43;;;25.73;;
15454;SDS011;21057;51.024;7.540;2024-02-21T10:00:55;27.60;;;24.87;;
15454;SDS011;21057;51.024;7.540;2024-02-21T10:03:25;24.60;;;22.40;;
15454;SDS011;21057;51.024;7.540;2024-02-21T10:05:52;24.93;;;23.23;;
15454;SDS011;21057;51.024;7.540;2024-02-21T10:08:20;25.33;;;23.43;;
15454;SDS011;21057;51.024;7.540;2024-02-21T10:10:47;26.23;;;24.33;;
15454;SDS011;21057;51.024;7.540;2024-02-21T10:13:26;26.90;;;24.77;;
15454;SDS011;21057;51.024;7.540;2024-02-21T10:16:03;26.30;;;23.97;;
15454;SDS011;21057;51.024;7.540;2024-02-21T10:18:31;24.30;;;22.70;;
15454;SDS011;21057;51.024;7.540;2024-02-21T10:21:04;24.63;;;22.50;;
15454;SDS011;21057;51.024;7.540;2024-02-21T10:23:43;25.57;;;23.83;;
15454;SDS011;21057;51.024;7.540;2024-02-21T10:26:11;23.57;;;22.07;;
15454;SDS011;21057;51.024;7.540;2024-02-21T10:28:37;24.87;;;23.07;;
15454;SDS011;21057;51.024;7.540;2024-02-21T10:31:07;26.13;;;24.13;;
15454;SDS011;21057;51.024;7.540;2024-02-21T10:33:35;23.63;;;22.00;;
15454;SDS011;21057;51.024;7.540;2024-02-21T10:36:06;24.57;;;22.63;;
15454;SDS011;21057;51.024;7.540;2024-02-21T10:38:34;24.80;;;22.73;;
15454;SDS011;21057;51.024;7.540;2024-02-21T10:41:02;24.07;;;22.33;;
15454;SDS011;21057;51.024;7.540;2024-02-21T10:43:30;27.07;;;24.97;;
15454;SDS011;21057;51.024;7.540;2024-02-21T10:46:04;26.03;;;24.10;;
15454;SDS011;21057;51.024;7.540;2024-02-21T10:48:33;24.30;;;22.50;;
15454;SDS011;21057;51.024;7.540;2024-02-21T10:51:09;25.00;;;23.30;;
15454;SDS011;21057;51.024;7.540;2024-02-21T10:53:41;24.90;;;23.07;;
15454;SDS011;21057;51.024;7.540;2024-02-21T10:56:16;24.47;;;22.67;;
15454;SDS011;21057;51.024;7.540;2024-02-21T10:58:52;23.60;;;21.73;;
15454;SDS011;21057;51.024;7.540;2024-02-21T11:01:20;24.40;;;22.60;;
15454;SDS011;21057;51.024;7.540;2024-02-21T11:03:47;22.90;;;21.43;;
15454;SDS011;21057;51.024;7.540;2024-02-21T11:06:16;28.23;;;20.70;;
15454;SDS011;21057;51.024;7.540;2024-02-21T11:08:45;23.13;;;21.20;;
15454;SDS011;21057;51.024;7.540;2024-02-21T11:11:13;22.73;;;21.03;;
15454;SDS011;21057;51.024;7.540;2024-02-21T11:13:45;22.70;;;21.10;;
15454;SDS011;21057;51.024;7.540;2024-02-21T11:16:21;24.53;;;22.50;;
15454;SDS011;21057;51.024;7.540;2024-02-21T11:18:48;23.37;;;21.87;;
15454;SDS011;21057;51.024;7.540;2024-02-21T11:21:15;23.37;;;21.57;;
15454;SDS011;21057;51.024;7.540;2024-02-21T11:23:42;23.80;;;21.97;;
15454;SDS011;21057;51.024;7.540;2024-02-21T11:26:09;23.33;;;21.77;;
15454;SDS011;21057;51.024;7.540;2024-02-21T11:28:55;22.07;;;20.63;;
15454;SDS011;21057;51.024;7.540;2024-02-21T11:31:22;22.90;;;21.40;;
15454;SDS011;21057;51.024;7.540;2024-02-21T11:33:49;23.17;;;21.33;;
15454;SDS011;21057;51.024;7.540;2024-02-21T11:36:23;23.30;;;21.70;;
15454;SDS011;21057;51.024;7.540;2024-02-21T11:38:50;22.17;;;20.47;;
15454;SDS011;21057;51.024;7.540;2024-02-21T11:41:18;23.70;;;22.00;;
15454;SDS011;21057;51.024;7.540;2024-02-21T11:43:47;23.17;;;21.63;;
15454;SDS011;21057;51.024;7.540;2024-02-21T11:46:15;22.93;;;21.43;;
15454;SDS011;21057;51.024;7.540;2024-02-21T11:48:42;23.33;;;21.00;;
15454;SDS011;21057;51.024;7.540;2024-02-21T11:51:09;23.43;;;21.60;;
15454;SDS011;21057;51.024;7.540;2024-02-21T11:53:36;23.27;;;21.50;;
15454;SDS011;21057;51.024;7.540;2024-02-21T11:56:03;22.80;;;21.27;;
15454;SDS011;21057;51.024;7.540;2024-02-21T11:58:31;22.90;;;21.03;;
15454;SDS011;21057;51.024;7.540;2024-02-21T12:00:59;22.20;;;20.60;;
15454;SDS011;21057;51.024;7.540;2024-02-21T12:03:27;22.83;;;20.83;;
15454;SDS011;21057;51.024;7.540;2024-02-21T12:05:54;21.70;;;20.33;;
15454;SDS011;21057;51.024;7.540;2024-02-21T12:08:23;21.93;;;20.13;;
15454;SDS011;21057;51.024;7.540;2024-02-21T12:10:50;21.60;;;20.30;;
15454;SDS011;21057;51.024;7.540;2024-02-21T12:13:17;22.50;;;20.40;;
15454;SDS011;21057;51.024;7.540;2024-02-21T12:15:48;22.73;;;20.93;;
15454;SDS011;21057;51.024;7.540;2024-02-21T12:18:16;23.50;;;21.50;;
15454;SDS011;21057;51.024;7.540;2024-02-21T12:20:43;23.63;;;21.40;;
15454;SDS011;21057;51.024;7.540;2024-02-21T12:23:13;23.17;;;21.43;;
15454;SDS011;21057;51.024;7.540;2024-02-21T12:25:42;22.57;;;20.60;;
15454;SDS011;21057;51.024;7.540;2024-02-21T12:28:09;23.13;;;21.33;;
15454;SDS011;21057;51.024;7.540;2024-02-21T12:30:36;23.80;;;21.70;;
15454;SDS011;21057;51.024;7.540;2024-02-21T12:33:05;23.50;;;21.77;;
15454;SDS011;21057;51.024;7.540;2024-02-21T12:35:33;23.63;;;21.47;;
15454;SDS011;21057;51.024;7.540;2024-02-21T12:37:59;24.33;;;21.77;;
15454;SDS011;21057;51.024;7.540;2024-02-21T12:40:26;24.00;;;22.13;;
15454;SDS011;21057;51.024;7.540;2024-02-21T12:42:57;23.60;;;21.70;;
15454;SDS011;21057;51.024;7.540;2024-02-21T12:45:24;23.10;;;21.30;;
15454;SDS011;21057;51.024;7.540;2024-02-21T12:47:51;22.83;;;21.17;;
15454;SDS011;21057;51.024;7.540;2024-02-21T12:50:18;23.83;;;22.00;;
15454;SDS011;21057;51.024;7.540;2024-02-21T12:52:46;23.97;;;21.97;;
15454;SDS011;21057;51.024;7.540;2024-02-21T12:55:13;23.47;;;21.43;;
15454;SDS011;21057;51.024;7.540;2024-02-21T12:57:41;23.30;;;21.70;;
15454;SDS011;21057;51.024;7.540;2024-02-21T13:00:08;23.47;;;21.77;;
15454;SDS011;21057;51.024;7.540;2024-02-21T13:02:36;23.20;;;21.60;;
15454;SDS011;21057;51.024;7.540;2024-02-21T13:05:03;23.27;;;21.43;;
15454;SDS011;21057;51.024;7.540;2024-02-21T13:07:30;23.77;;;21.97;;
15454;SDS011;21057;51.024;7.540;2024-02-21T13:09:59;25.57;;;23.67;;
15454;SDS011;21057;51.024;7.540;2024-02-21T13:12:25;23.27;;;21.50;;
15454;SDS011;21057;51.024;7.540;2024-02-21T13:14:52;23.37;;;21.87;;
15454;SDS011;21057;51.024;7.540;2024-02-21T13:17:19;24.10;;;22.40;;
15454;SDS011;21057;51.024;7.540;2024-02-21T13:19:47;22.60;;;21.10;;
15454;SDS011;21057;51.024;7.540;2024-02-21T13:22:14;22.73;;;21.13;;
15454;SDS011;21057;51.024;7.540;2024-02-21T13:24:41;23.23;;;21.53;;
15454;SDS011;21057;51.024;7.540;2024-02-21T13:27:09;23.77;;;21.53;;
15454;SDS011;21057;51.024;7.540;2024-02-21T13:29:37;22.47;;;20.97;;
15454;SDS011;21057;51.024;7.540;2024-02-21T13:32:04;23.40;;;21.43;;
15454;SDS011;21057;51.024;7.540;2024-02-21T13:34:31;23.13;;;21.30;;
15454;SDS011;21057;51.024;7.540;2024-02-21T13:36:59;23.37;;;21.60;;
15454;SDS011;21057;51.024;7.540;2024-02-21T13:39:26;22.70;;;21.17;;
15454;SDS011;21057;51.024;7.540;2024-02-21T13:41:52;22.10;;;20.67;;
15454;SDS011;21057;51.024;7.540;2024-02-21T13:44:20;23.03;;;20.87;;
15454;SDS011;21057;51.024;7.540;2024-02-21T13:46:47;23.17;;;21.17;;
15454;SDS011;21057;51.024;7.540;2024-02-21T13:49:15;23.77;;;22.17;;
15454;SDS011;21057;51.024;7.540;2024-02-21T13:51:42;22.63;;;21.17;;
15454;SDS011;21057;51.024;7.540;2024-02-21T13:54:10;22.97;;;21.20;;
15454;SDS011;21057;51.024;7.540;2024-02-21T13:56:39;22.67;;;20.87;;
15454;SDS011;21057;51.024;7.540;2024-02-21T13:59:06;21.13;;;19.83;;
15454;SDS011;21057;51.024;7.540;2024-02-21T14:01:34;22.30;;;20.30;;
15454;SDS011;21057;51.024;7.540;2024-02-21T14:04:01;22.80;;;20.93;;
15454;SDS011;21057;51.024;7.540;2024-02-21T14:06:29;21.00;;;19.63;;
15454;SDS011;21057;51.024;7.540;2024-02-21T14:08:56;23.23;;;21.67;;
15454;SDS011;21057;51.024;7.540;2024-02-21T14:11:23;22.27;;;20.70;;
15454;SDS011;21057;51.024;7.540;2024-02-21T14:13:50;21.83;;;20.43;;
15454;SDS011;21057;51.024;7.540;2024-02-21T14:16:16;21.37;;;20.00;;
15454;SDS011;21057;51.024;7.540;2024-02-21T14:18:44;22.10;;;20.47;;
15454;SDS011;21057;51.024;7.540;2024-02-21T14:21:11;21.90;;;20.40;;
15454;SDS011;21057;51.024;7.540;2024-02-21T14:23:38;22.00;;;20.27;;
15454;SDS011;21057;51.024;7.540;2024-02-21T14:26:05;22.30;;;20.50;;
15454;SDS011;21057;51.024;7.540;2024-02-21T14:28:32;22.03;;;20.07;;